Takigahara, Fuji Air Base (RJAT)

NameFuji Air Base
CityTakigahara
CountryJapan
ICAORJAT
IATA
Altitude692 m
CoordinatesGoogle Map
Live Air TrafficLiveATC.net
METARRJAT 130549Z 09007KT 9999 -SHRA FEW008 SCT015 BKN030 29/22 Q1012 RMK 1ST008 3CU015 5CU030 A2989
2019-08-13 05:49:00 Wind: East (90°) 3.6 m/s - Visibility: > 10000 m - Weather: Light Showers Rain - Temperature: 29 °C - Dew point: 22 °C - Humidity: 66% - Pressure: 1012 hPa

Sorry, no flights used the airport in this database.